Time;durP1;ratioP1;P1;durP2;ratioP2;P2;SDS_P1;SDS_P2;PMS_P1;PMS_P2;Temp;Humidity;BMP_temperature;BMP_pressure;BME280_temperature;BME280_humidity;BME280_pressure;Samples;Min_cycle;Max_cycle;Signal;HPM_P1;HPM_P2
2021/11/18 00:01:43;;;;;;;;;;;;;;;;;;;;;
2021/11/18 00:04:54;;;;;;;15.90;5.90;;;;;;;5.41;99.57;101626.86;102969;1317;75726;-78
2021/11/18 00:08:19;;;;;;;16.70;5.10;;;;;;;5.42;99.24;101636.19;102628;1316;72585;-78
2021/11/18 00:10:59;;;;;;;20.60;6.40;;;;;;;5.43;99.21;101632.25;102347;1317;74422;-78
2021/11/18 00:13:36;;;;;;;26.10;6.30;;;;;;;5.43;98.91;101634.02;102543;1318;62993;-79
2021/11/18 00:16:39;;;;;;;;;;;;;;;;;;;;;
2021/11/18 00:20:08;;;;;;;12.90;4.40;;;;;;;5.40;98.93;101646.40;102562;1319;75990;-79
2021/11/18 00:23:35;;;;;;;21.50;6.20;;;;;;;5.38;98.88;101653.89;103043;1317;70396;-80
2021/11/18 00:26:31;;;;;;;16.70;5.50;;;;;;;5.38;98.91;101651.66;103131;1321;72948;-78
2021/11/18 00:29:33;;;;;;;17.50;5.60;;;;;;;5.36;98.93;101657.73;102837;1317;62294;-78
2021/11/18 00:32:41;;;;;;;22.30;6.30;;;;;;;5.36;98.85;101664.44;103005;1316;61762;-81
2021/11/18 00:35:26;;;;;;;;;;;;;;;;;;;;;
2021/11/18 00:38:39;;;;;;;23.30;5.80;;;;;;;5.36;99.07;101666.17;102522;1316;70397;-78
2021/11/18 00:41:18;;;;;;;25.60;6.30;;;;;;;5.38;99.15;101668.27;102950;1319;74194;-78
2021/11/18 00:44:02;;;;;;;;;;;;;;;;;;;;;
2021/11/18 00:47:04;;;;;;;20.90;6.10;;;;;;;5.38;99.41;101664.56;102465;1319;62165;-78
2021/11/18 00:50:20;;;;;;;17.20;5.70;;;;;;;5.40;99.25;101666.33;102486;1321;74903;-78
2021/11/18 00:53:21;;;;;;;;;;;;;;;;;;;;;
2021/11/18 00:56:10;;;;;;;;;;;;;;;;;;;;;
2021/11/18 00:58:58;;;;;;;19.60;5.60;;;;;;;5.52;99.21;101677.55;102624;1318;62412;-78
2021/11/18 01:01:44;;;;;;;15.50;4.20;;;;;;;5.59;99.23;101679.11;102536;1320;61357;-81
2021/11/18 01:04:59;;;;;;;;;;;;;;;;;;;;;
2021/11/18 01:07:50;;;;;;;19.80;5.60;;;;;;;5.72;98.70;101686.54;102409;1318;72442;-78
2021/11/18 01:10:52;;;;;;;;;;;;;;;;;;;;;
2021/11/18 01:14:21;;;;;;;16.40;5.10;;;;;;;5.81;97.95;101689.54;102873;1322;61452;-78
2021/11/18 01:17:48;;;;;;;17.30;6.50;;;;;;;5.82;97.50;101690.86;102299;1316;61711;-78
2021/11/18 01:20:47;;;;;;;;;;;;;;;;;;;;;
2021/11/18 01:23:22;;;;;;;16.80;4.60;;;;;;;5.82;97.20;101701.21;102530;1316;72767;-81
2021/11/18 01:26:52;;;;;;;14.70;5.30;;;;;;;5.83;97.18;101702.03;103355;1319;72594;-79
2021/11/18 01:29:35;;;;;;;;;;;;;;;;;;;;;
2021/11/18 01:33:04;;;;;;;17.20;5.70;;;;;;;5.89;97.14;101702.23;102779;1320;61755;-79
2021/11/18 01:36:32;;;;;;;18.90;5.30;;;;;;;5.92;96.83;101705.36;102528;1317;75056;-79
2021/11/18 01:40:00;;;;;;;10.00;4.70;;;;;;;5.96;96.42;101704.90;102880;1320;71465;-80
2021/11/18 01:43:15;;;;;;;;;;;;;;;;;;;;;
2021/11/18 01:46:25;;;;;;;20.00;5.50;;;;;;;6.04;96.20;101702.49;102626;1323;62646;-82
2021/11/18 01:49:46;;;;;;;;;;;;;;;;;;;;;
2021/11/18 01:52:46;;;;;;;17.60;4.80;;;;;;;6.12;96.21;101707.00;102986;1323;75971;-79
2021/11/18 01:55:24;;;;;;;13.50;4.00;;;;;;;6.14;95.99;101702.48;102970;1320;70712;-77
2021/11/18 01:58:26;;;;;;;;;;;;;;;;;;;;;
2021/11/18 02:01:46;;;;;;;14.70;4.10;;;;;;;6.16;95.52;101711.92;102527;1317;60749;-77
2021/11/18 02:05:14;;;;;;;13.50;5.50;;;;;;;6.12;95.53;101716.80;102658;1316;61392;-78
2021/11/18 02:08:24;;;;;;;16.80;5.70;;;;;;;6.10;95.52;101712.95;102259;1317;74782;-79
2021/11/18 02:11:13;;;;;;;13.10;3.70;;;;;;;6.07;95.55;101711.59;103180;1319;72526;-81
2021/11/18 02:14:19;;;;;;;;;;;;;;;;;;;;;
2021/11/18 02:17:28;;;;;;;;;;;;;;;;;;;;;
2021/11/18 02:20:25;;;;;;;11.30;4.10;;;;;;;6.05;95.66;101707.38;103210;1319;61234;-79
2021/11/18 02:23:35;;;;;;;14.10;4.70;;;;;;;6.03;95.78;101713.14;102539;1317;74099;-78
2021/11/18 02:26:51;;;;;;;15.50;4.10;;;;;;;6.02;95.73;101717.59;102824;1317;72367;-79
2021/11/18 02:29:43;;;;;;;18.00;5.00;;;;;;;5.99;95.86;101716.59;102426;1318;72917;-79
2021/11/18 02:32:32;;;;;;;;;;;;;;;;;;;;;
2021/11/18 02:36:02;;;;;;;13.30;4.40;;;;;;;6.01;95.82;101717.67;102911;1317;61551;-78
2021/11/18 02:39:18;;;;;;;;;;;;;;;;;;;;;
2021/11/18 02:42:33;;;;;;;15.70;3.80;;;;;;;6.03;95.66;101719.83;104553;1316;70658;-79
2021/11/18 02:46:02;;;;;;;11.30;4.30;;;;;;;6.02;95.74;101717.60;102447;1316;73395;-78
2021/11/18 02:49:09;;;;;;;10.70;3.80;;;;;;;6.02;95.80;101721.94;103488;1316;62540;-79
2021/11/18 02:52:24;;;;;;;;;;;;;;;;;;;;;
2021/11/18 02:55:36;;;;;;;12.70;3.90;;;;;;;6.04;95.75;101736.23;102864;1324;76557;-80
2021/11/18 02:58:44;;;;;;;12.90;4.20;;;;;;;6.07;95.83;101738.48;102998;1322;71552;-81
2021/11/18 03:02:18;;;;;;;12.50;3.50;;;;;;;6.09;95.91;101733.56;103356;1322;73377;-82
2021/11/18 03:05:28;;;;;;;14.20;4.60;;;;;;;6.12;95.99;101739.34;103214;1316;61285;-79
2021/11/18 03:08:48;;;;;;;;;;;;;;;;;;;;;
2021/11/18 03:11:59;;;;;;;20.50;4.40;;;;;;;6.20;95.88;101733.20;103167;1317;74813;-79
2021/11/18 03:15:27;;;;;;;14.60;4.10;;;;;;;6.26;95.80;101731.73;103449;1316;71629;-79
2021/11/18 03:18:57;;;;;;;14.80;4.30;;;;;;;6.31;95.67;101733.73;103206;1321;74447;-80
2021/11/18 03:22:24;;;;;;;15.70;4.30;;;;;;;6.37;95.48;101727.66;103124;1317;62482;-80
2021/11/18 03:25:35;;;;;;;11.50;4.30;;;;;;;6.41;95.59;101725.45;102278;1317;61351;-78
2021/11/18 03:28:34;;;;;;;15.40;4.10;;;;;;;6.43;95.53;101729.30;102543;1320;76501;-79
2021/11/18 03:32:02;;;;;;;18.90;4.40;;;;;;;6.44;95.43;101727.44;102464;1316;73885;-82
2021/11/18 03:35:21;;;;;;;;;;;;;;;;;;;;;
2021/11/18 03:38:50;;;;;;;13.60;4.00;;;;;;;6.49;95.18;101724.04;103187;1316;62183;-78
2021/11/18 03:42:06;;;;;;;;;;;;;;;;;;;;;
2021/11/18 03:45:37;;;;;;;13.90;4.10;;;;;;;6.52;95.29;101726.80;102405;1318;75100;-80
2021/11/18 03:49:03;;;;;;;18.50;3.70;;;;;;;6.57;95.23;101722.75;103171;1321;71427;-79
2021/11/18 03:52:31;;;;;;;10.60;4.40;;;;;;;6.60;95.12;101714.04;103010;1316;72798;-79
2021/11/18 03:55:47;;;;;;;;;;;;;;;;;;;;;
2021/11/18 03:59:18;;;;;;;18.90;4.60;;;;;;;6.63;94.97;101727.20;102612;1316;61339;-77
2021/11/18 04:02:18;;;;;;;16.80;5.30;;;;;;;6.67;95.07;101732.51;102748;1322;75086;-77
2021/11/18 04:05:46;;;;;;;11.80;4.00;;;;;;;6.70;95.03;101732.42;102735;1321;73458;-78
2021/11/18 04:09:13;;;;;;;15.90;3.90;;;;;;;6.73;94.91;101723.01;102872;1316;72397;-80
2021/11/18 04:12:16;;;;;;;13.00;3.90;;;;;;;6.76;95.13;101720.36;103336;1317;61867;-81
2021/11/18 04:15:20;;;;;;;15.30;3.50;;;;;;;6.78;94.83;101722.47;102968;1319;60078;-78
2021/11/18 04:18:42;;;;;;;13.80;3.90;;;;;;;6.82;94.75;101729.33;102371;1316;75077;-77
2021/11/18 04:21:43;;;;;;;;;;;;;;;;;;;;;
2021/11/18 04:25:11;;;;;;;13.90;4.10;;;;;;;6.86;94.68;101727.61;102515;1317;74174;-80
2021/11/18 04:27:39;;;;;;;12.40;3.60;;;;;;;6.89;94.62;101725.95;102825;1321;62033;-78
2021/11/18 04:31:11;;;;;;;16.60;4.20;;;;;;;6.90;94.76;101727.93;102678;1316;61610;-79
2021/11/18 04:34:11;;;;;;;;;;;;;;;;;;;;;
2021/11/18 04:37:18;;;;;;;;;;;;;;;;;;;;;
2021/11/18 04:40:27;;;;;;;;;;;;;;;;;;;;;
2021/11/18 04:43:15;;;;;;;8.60;3.70;;;;;;;6.86;94.55;101728.31;102984;1317;61668;-82
2021/11/18 04:46:27;;;;;;;12.70;4.00;;;;;;;6.83;94.81;101731.70;103163;1323;61624;-80
2021/11/18 04:49:44;;;;;;;;;;;;;;;;;;;;;
2021/11/18 04:52:54;;;;;;;15.10;3.90;;;;;;;6.85;95.17;101741.60;102585;1316;71528;-77
2021/11/18 04:56:22;;;;;;;17.90;4.30;;;;;;;6.85;95.04;101739.63;102487;1318;73361;-79
2021/11/18 04:59:39;;;;;;;10.20;3.90;;;;;;;6.85;94.94;101740.48;102929;1317;62116;-78
2021/11/18 05:02:35;;;;;;;;;;;;;;;;;;;;;
2021/11/18 05:05:57;;;;;;;10.30;4.00;;;;;;;6.81;95.10;101741.34;103291;1317;75088;-82
2021/11/18 05:09:25;;;;;;;18.30;5.30;;;;;;;6.81;95.49;101746.65;102466;1321;71611;-79
2021/11/18 05:12:50;;;;;;;12.10;5.20;;;;;;;6.80;95.27;101753.61;102192;1318;72754;-80
2021/11/18 05:16:19;;;;;;;15.90;5.00;;;;;;;6.79;95.60;101762.62;103173;1320;62552;-78
2021/11/18 05:19:48;;;;;;;13.20;5.20;;;;;;;6.80;95.57;101763.45;103035;1317;61334;-79
2021/11/18 05:23:08;;;;;;;21.70;5.50;;;;;;;6.81;95.78;101761.94;103317;1317;75155;-81
2021/11/18 05:26:35;;;;;;;26.50;7.80;;;;;;;6.81;95.74;101763.69;102572;1319;72779;-81
2021/11/18 05:29:42;;;;;;;17.20;5.20;;;;;;;6.83;95.76;101766.73;102594;1319;74591;-79
2021/11/18 05:32:17;;;;;;;13.20;5.30;;;;;;;6.85;95.57;101763.76;102572;1318;62029;-78
2021/11/18 05:35:45;;;;;;;21.70;5.40;;;;;;;6.86;95.90;101766.48;102563;1316;61324;-77
2021/11/18 05:39:01;;;;;;;24.70;7.30;;;;;;;6.86;95.81;101764.04;102560;1317;75989;-78
2021/11/18 05:42:00;;;;;;;;;;;;;;;;;;;;;
2021/11/18 05:45:34;;;;;;;19.50;6.00;;;;;;;6.79;96.12;101764.91;102579;1320;72951;-80
2021/11/18 05:48:23;;;;;;;10.30;4.60;;;;;;;6.76;96.35;101765.34;102442;1317;63137;-79
2021/11/18 05:51:17;;;;;;;23.80;6.40;;;;;;;6.74;96.47;101771.84;102947;1318;60763;-80
2021/11/18 05:54:35;;;;;;;16.20;5.20;;;;;;;6.74;96.93;101773.94;102384;1317;75757;-80
2021/11/18 05:57:22;;;;;;;21.90;6.70;;;;;;;6.76;96.89;101769.41;102811;1318;72617;-78
2021/11/18 06:00:51;;;;;;;11.40;4.10;;;;;;;6.77;96.91;101770.34;102918;1323;74019;-79
2021/11/18 06:04:09;;;;;;;10.80;5.10;;;;;;;6.78;97.06;101772.90;103109;1317;63043;-79
2021/11/18 06:07:37;;;;;;;16.00;6.50;;;;;;;6.81;96.76;101778.67;103237;1317;61434;-79
2021/11/18 06:11:03;;;;;;;18.30;6.60;;;;;;;6.80;97.10;101778.35;102698;1316;74972;-77
2021/11/18 06:14:06;;;;;;;;;;;;;;;;;;;;;
2021/11/18 06:17:35;;;;;;;21.70;6.50;;;;;;;6.84;97.16;101788.27;102571;1316;74000;-78
2021/11/18 06:21:02;;;;;;;16.90;5.60;;;;;;;6.85;96.95;101784.44;102404;1318;62840;-77
2021/11/18 06:24:14;;;;;;;25.20;6.20;;;;;;;6.88;97.01;101786.30;102311;1316;5518397;-79
2021/11/18 06:27:42;;;;;;;17.30;5.70;;;;;;;6.89;96.97;101797.17;101750;1324;61810;-78
2021/11/18 06:31:01;;;;;;;;;;;;;;;;;;;;;
2021/11/18 06:34:14;;;;;;;;;;;;;;;;;;;;;
2021/11/18 06:37:32;;;;;;;;;;;;;;;;;;;;;
2021/11/18 06:41:00;;;;;;;9.80;4.40;;;;;;;6.92;96.37;101782.45;101678;1323;61749;-79
2021/11/18 06:44:27;;;;;;;16.20;6.30;;;;;;;6.94;96.05;101794.42;102111;1328;61440;-77
2021/11/18 06:47:55;;;;;;;20.60;6.80;;;;;;;6.95;95.97;101791.06;101997;1325;74930;-79
2021/11/18 06:51:23;;;;;;;17.10;6.30;;;;;;;6.94;96.01;101800.98;101767;1328;73219;-77
2021/11/18 06:54:49;;;;;;;15.60;6.60;;;;;;;6.95;95.99;101794.76;101821;1324;73657;-79
2021/11/18 07:01:27;;;;;;;14.60;6.20;;;;;;;6.99;96.11;101791.98;101841;1324;61797;-79
2021/11/18 07:04:54;;;;;;;13.40;6.30;;;;;;;6.98;95.79;101794.67;102778;1316;74147;-78
2021/11/18 07:08:20;;;;;;;19.80;9.50;;;;;;;6.99;95.94;101800.63;102456;1317;72561;-78
2021/11/18 07:11:47;;;;;;;19.40;6.80;;;;;;;7.01;96.01;101804.48;102947;1316;74117;-78
2021/11/18 07:14:58;;;;;;;21.70;7.40;;;;;;;7.03;96.07;101804.63;102453;1317;63341;-79
2021/11/18 07:18:25;;;;;;;14.40;4.60;;;;;;;7.06;95.97;101809.52;102598;1315;61661;-78
2021/11/18 07:21:23;;;;;;;;;;;;;;;;;;;;;
2021/11/18 07:24:45;;;;;;;;;;;;;;;;;;;;;
2021/11/18 07:27:37;;;;;;;14.60;5.10;;;;;;;7.19;95.77;101831.52;102253;1318;71828;-79
2021/11/18 07:30:33;;;;;;;18.60;6.90;;;;;;;7.23;96.00;101828.56;102815;1317;62243;-80
2021/11/18 07:36:48;;;;;;;;;;;;;;;;;;;;;
2021/11/18 07:39:46;;;;;;;;;;;;;;;;;;;;;
2021/11/18 07:43:18;;;;;;;19.40;6.80;;;;;;;7.43;95.19;101836.74;102221;1319;74613;-79
2021/11/18 07:46:42;;;;;;;13.70;5.80;;;;;;;7.49;95.09;101844.34;102337;1318;63650;-79
2021/11/18 07:50:10;;;;;;;22.10;6.90;;;;;;;7.55;94.95;101850.39;103000;1318;62486;-80
2021/11/18 07:53:37;;;;;;;14.80;6.10;;;;;;;7.60;94.63;101859.44;102552;1317;75994;-78
2021/11/18 07:57:04;;;;;;;16.70;6.30;;;;;;;7.64;94.46;101859.32;102802;1318;71545;-77
2021/11/18 08:00:32;;;;;;;17.30;7.80;;;;;;;7.67;94.56;101858.87;102454;1323;74037;-77
2021/11/18 08:03:59;;;;;;;24.30;8.60;;;;;;;7.69;93.98;101855.77;102491;1318;61464;-76
2021/11/18 08:07:26;;;;;;;31.70;9.50;;;;;;;7.73;93.63;101862.95;102712;1318;62767;-80
2021/11/18 08:10:40;;;;;;;10.60;5.70;;;;;;;7.79;93.96;101864.48;102608;1318;75036;-78
2021/11/18 08:14:08;;;;;;;17.60;6.50;;;;;;;7.81;93.37;101862.19;102322;1318;71408;-77
2021/11/18 08:17:18;;;;;;;21.60;8.00;;;;;;;7.82;93.29;101858.05;102594;1318;74271;-79
2021/11/18 08:20:35;;;;;;;22.60;7.10;;;;;;;7.84;93.31;101853.95;102502;1318;61359;-78
2021/11/18 08:23:46;;;;;;;26.20;7.80;;;;;;;7.85;93.45;101842.42;102638;1316;61373;-78
2021/11/18 08:27:11;;;;;;;;;;;;;;;;;;;;;
2021/11/18 08:30:42;;;;;;;25.40;8.50;;;;;;;7.88;92.94;101843.05;102815;1317;71278;-81
2021/11/18 08:33:53;;;;;;;20.20;7.10;;;;;;;7.91;92.38;101838.92;103286;1318;74004;-82
2021/11/18 08:37:21;;;;;;;20.00;7.60;;;;;;;8.01;92.70;101837.63;102679;1318;62280;-79
2021/11/18 08:40:38;;;;;;;;;;;;;;;;;;;;;
2021/11/18 08:44:12;;;;;;;19.30;7.60;;;;;;;8.26;91.67;101854.33;103097;1319;74147;-79
2021/11/18 08:47:48;;;;;;;;;;;;;;;;;;;;;
2021/11/18 08:50:51;;;;;;;15.60;5.90;;;;;;;8.50;90.18;101864.91;102416;1318;74092;-76
2021/11/18 08:54:19;;;;;;;17.20;7.00;;;;;;;8.63;89.58;101861.38;102692;1322;62332;-77
2021/11/18 08:57:39;;;;;;;23.70;8.60;;;;;;;8.70;89.34;101852.09;102516;1324;61720;-78
2021/11/18 09:01:12;;;;;;;23.00;8.10;;;;;;;8.79;89.32;101850.10;102608;1321;76321;-77
2021/11/18 09:04:40;;;;;;;20.70;9.10;;;;;;;8.85;88.36;101853.98;102475;1322;71391;-79
2021/11/18 09:08:08;;;;;;;25.50;8.90;;;;;;;8.85;87.93;101852.75;102630;1327;74161;-78
2021/11/18 09:11:15;;;;;;;20.60;6.60;;;;;;;8.86;87.99;101852.48;102749;1321;62298;-77
2021/11/18 09:14:07;;;;;;;18.20;7.90;;;;;;;8.87;87.90;101846.91;102632;1321;61340;-79
2021/11/18 09:16:39;;;;;;;20.70;6.50;;;;;;;8.92;88.05;101853.74;102305;1322;76092;-76
2021/11/18 09:19:59;;;;;;;15.70;7.40;;;;;;;8.91;88.16;101858.02;103248;1322;73089;-78
2021/11/18 09:23:07;;;;;;;15.90;7.90;;;;;;;8.95;88.12;101865.42;102971;1321;73014;-77
2021/11/18 09:26:38;;;;;;;18.90;6.00;;;;;;;9.00;87.74;101877.02;103084;1321;61336;-78
2021/11/18 09:30:06;;;;;;;20.60;7.80;;;;;;;9.04;87.64;101886.23;102500;1323;61772;-80
2021/11/18 09:32:43;;;;;;;16.20;6.30;;;;;;;9.07;87.57;101894.06;102560;1318;75007;-77
2021/11/18 09:35:15;;;;;;;18.10;6.90;;;;;;;9.04;86.80;101889.51;102760;1318;72079;-79
2021/11/18 09:38:05;;;;;;;20.00;6.50;;;;;;;9.09;87.15;101897.25;102951;1319;72941;-78
2021/11/18 09:41:08;;;;;;;14.80;7.70;;;;;;;9.07;86.76;101895.59;102712;1319;62334;-79
2021/11/18 09:44:19;;;;;;;22.20;7.30;;;;;;;9.06;86.68;101889.73;102360;1321;62884;-77
2021/11/18 09:47:40;;;;;;;22.30;7.40;;;;;;;9.05;86.91;101896.84;102649;1315;75994;-79
2021/11/18 09:50:31;;;;;;;17.80;9.10;;;;;;;9.05;86.92;101898.63;102202;1327;71553;-79
2021/11/18 09:54:05;;;;;;;28.30;9.20;;;;;;;9.06;86.89;101891.36;102788;1318;72933;-79
2021/11/18 09:57:23;;;;;;;;;;;;;;;;;;;;;
2021/11/18 10:00:13;;;;;;;;;;;;;;;;;;;;;
2021/11/18 10:03:28;;;;;;;26.00;10.30;;;;;;;9.11;86.54;101885.74;102859;1316;76254;-79
2021/11/18 10:06:52;;;;;;;21.50;7.00;;;;;;;9.12;86.06;101890.29;103100;1317;72487;-79
2021/11/18 10:10:14;;;;;;;;;;;;;;;;;;;;;
2021/11/18 10:13:48;;;;;;;;;;;;;;;;;;;;;
2021/11/18 10:17:08;;;;;;;13.20;5.90;;;;;;;9.22;85.52;101883.34;102633;1318;61594;-78
2021/11/18 10:20:03;;;;;;;;;;;;;;;;;;;;;
2021/11/18 10:22:44;;;;;;;14.30;5.20;;;;;;;9.40;85.28;101871.85;102966;1315;71661;-79
2021/11/18 10:25:58;;;;;;;24.40;8.30;;;;;;;9.50;84.41;101878.05;103036;1317;72781;-77
2021/11/18 10:28:43;;;;;;;18.50;5.90;;;;;;;9.62;84.43;101868.82;102746;1319;61801;-80
2021/11/18 10:31:45;;;;;;;20.20;6.00;;;;;;;9.73;84.31;101870.15;103068;1317;61321;-80
2021/11/18 10:34:49;;;;;;;24.20;6.40;;;;;;;9.82;83.40;101872.48;102942;1319;74920;-79
2021/11/18 10:38:14;;;;;;;14.30;5.60;;;;;;;9.87;82.69;101866.73;102744;1319;71390;-79
2021/11/18 10:41:41;;;;;;;;;;;;;;;;;;;;;
2021/11/18 10:44:50;;;;;;;22.90;7.30;;;;;;;10.02;82.33;101863.02;103364;1318;61907;-81
2021/11/18 10:47:53;;;;;;;16.50;7.00;;;;;;;10.15;82.13;101860.77;102533;1317;61135;-79
2021/11/18 10:50:45;;;;;;;;;;;;;;;;;;;;;
2021/11/18 10:53:26;;;;;;;20.30;5.90;;;;;;;10.27;81.47;101868.11;103243;1316;71225;-80
2021/11/18 10:56:16;;;;;;;13.40;4.90;;;;;;;10.29;81.11;101867.76;103371;1316;74251;-78
2021/11/18 10:59:16;;;;;;;21.70;6.70;;;;;;;10.25;80.26;101865.29;103117;1315;61931;-76
2021/11/18 11:01:54;;;;;;;15.90;5.90;;;;;;;10.27;80.65;101866.94;102767;1316;61852;-77
2021/11/18 11:04:59;;;;;;;23.40;7.70;;;;;;;10.36;80.34;101859.33;103014;1318;74749;-80
2021/11/18 11:08:01;;;;;;;20.70;7.20;;;;;;;10.58;79.16;101852.85;102312;1319;71232;-77
2021/11/18 11:10:52;;;;;;;24.60;6.80;;;;;;;10.85;78.16;101849.93;102432;1317;73119;-78
2021/11/18 11:14:09;;;;;;;13.60;5.80;;;;;;;11.19;76.85;101835.50;102927;1318;61284;-80
2021/11/18 11:17:13;;;;;;;18.00;6.20;;;;;;;11.47;75.76;101841.58;102666;1318;61355;-77
2021/11/18 11:20:17;;;;;;;;;;;;;;;11.63;74.51;101830.94;102606;1318;75850;-80
2021/11/18 11:23:07;;;;;;;17.50;6.60;;;;;;;11.57;73.79;101845.27;102729;1321;72448;-80
2021/11/18 11:25:58;;;;;;;15.60;5.60;;;;;;;11.43;74.62;101834.33;102728;1321;72792;-80
2021/11/18 11:29:27;;;;;;;16.00;5.50;;;;;;;11.25;74.25;101858.05;103187;1318;60598;-77
2021/11/18 11:32:13;;;;;;;21.00;6.40;;;;;;;10.99;74.86;101840.05;102671;1318;61305;-78
2021/11/18 11:35:25;;;;;;;14.90;5.20;;;;;;;10.84;75.25;101820.77;102306;1322;76452;-77
2021/11/18 11:38:43;;;;;;;19.90;5.10;;;;;;;10.79;76.27;101821.63;103142;1317;71623;-78
2021/11/18 11:41:54;;;;;;;17.50;5.60;;;;;;;10.74;76.28;101827.92;102018;1325;73957;-79
2021/11/18 11:44:33;;;;;;;19.70;5.50;;;;;;;10.68;76.01;101834.40;102286;1326;61514;-80
2021/11/18 11:47:18;;;;;;;17.20;5.40;;;;;;;10.66;76.08;101828.55;101859;1323;62343;-80
2021/11/18 11:50:20;;;;;;;13.20;5.30;;;;;;;10.63;75.80;101836.27;103053;1318;74762;-78
2021/11/18 11:53:00;;;;;;;12.60;4.30;;;;;;;10.68;75.95;101834.91;102793;1317;73653;-77
2021/11/18 11:55:58;;;;;;;15.60;5.40;;;;;;;10.73;75.94;101834.04;102628;1318;73990;-78
2021/11/18 11:58:31;;;;;;;14.70;5.50;;;;;;;10.77;75.23;101835.48;103076;1318;63803;-81
2021/11/18 12:01:39;;;;;;;13.60;4.60;;;;;;;10.83;75.36;101823.17;102786;1317;61262;-77
2021/11/18 12:04:56;;;;;;;;;;;;;;;;;;;;;
2021/11/18 12:07:53;;;;;;;17.60;5.20;;;;;;;10.81;73.98;101799.10;102635;1319;71433;-81
2021/11/18 12:10:44;;;;;;;8.80;4.40;;;;;;;10.83;73.66;101806.05;102673;1318;74097;-76
2021/11/18 12:13:52;;;;;;;16.50;5.90;;;;;;;10.90;73.51;101796.38;102825;1316;63251;-79
2021/11/18 12:16:54;;;;;;;13.30;4.20;;;;;;;10.97;73.50;101796.80;102837;1318;61474;-80
2021/11/18 12:19:41;;;;;;;15.40;4.40;;;;;;;11.12;73.41;101782.88;102901;1318;76026;-81
2021/11/18 12:23:09;;;;;;;12.60;4.00;;;;;;;11.39;72.38;101782.31;103356;1318;71611;-77
2021/11/18 12:25:48;;;;;;;15.70;3.90;;;;;;;11.62;70.17;101792.02;102496;1318;74099;-79
2021/11/18 12:28:24;;;;;;;11.10;4.60;;;;;;;11.52;68.84;101789.46;103200;1321;61830;-79
2021/11/18 12:31:25;;;;;;;10.50;4.30;;;;;;;11.41;68.94;101796.59;103572;1316;60666;-79
2021/11/18 12:34:10;;;;;;;13.30;4.00;;;;;;;11.30;69.54;101801.48;103062;1318;74911;-77
2021/11/18 12:36:59;;;;;;;13.00;4.60;;;;;;;11.06;69.50;101797.09;102733;1318;71477;-80
2021/11/18 12:40:29;;;;;;;13.90;3.80;;;;;;;10.98;69.52;101784.61;102672;1319;73179;-79
2021/11/18 12:43:29;;;;;;;9.30;3.50;;;;;;;10.97;68.55;101784.48;102229;1324;62248;-79
2021/11/18 12:46:50;;;;;;;;;;;;;;;;;;;;;
2021/11/18 12:49:21;;;;;;;11.30;4.10;;;;;;;10.99;68.85;101763.40;103000;1318;74982;-77
2021/11/18 12:52:06;;;;;;;8.50;4.00;;;;;;;10.95;68.70;101751.76;103283;1316;72487;-80
2021/11/18 12:55:04;;;;;;;11.10;4.00;;;;;;;10.98;69.10;101761.54;102961;1318;72195;-79
2021/11/18 12:57:45;;;;;;;15.70;4.70;;;;;;;11.04;68.88;101771.92;102459;1324;61460;-82
2021/11/18 13:00:20;;;;;;;12.70;3.90;;;;;;;11.09;68.66;101773.45;103123;1318;61202;-79
2021/11/18 13:03:51;;;;;;;10.20;3.80;;;;;;;11.11;69.23;101777.10;102865;1317;76294;-77
2021/11/18 13:07:30;;;;;;;12.10;4.10;;;;;;;11.10;68.43;101762.64;103219;1322;72782;-78
2021/11/18 13:10:52;;;;;;;17.90;4.50;;;;;;;11.17;69.26;101744.27;103278;1318;73893;-81
2021/11/18 13:14:02;;;;;;;13.30;3.00;;;;;;;11.24;68.80;101745.04;102928;1319;62138;-79
2021/11/18 13:16:59;;;;;;;11.80;3.20;;;;;;;11.24;68.45;101732.55;103108;1317;61228;-77
2021/11/18 13:19:52;;;;;;;12.90;3.20;;;;;;;11.15;68.47;101723.79;103466;1318;75088;-80
2021/11/18 13:22:40;;;;;;;8.70;2.80;;;;;;;11.13;68.42;101731.27;103341;1319;71461;-82
2021/11/18 13:25:13;;;;;;;11.70;3.60;;;;;;;11.13;67.94;101728.95;103562;1317;74238;-79
2021/11/18 13:27:50;;;;;;;10.20;3.20;;;;;;;11.24;67.43;101727.51;103125;1318;62960;-79
2021/11/18 13:30:37;;;;;;;14.90;3.20;;;;;;;11.33;67.24;101720.56;102803;1318;62026;-77
2021/11/18 13:33:43;;;;;;;10.70;3.00;;;;;;;11.19;67.45;101722.45;102616;1316;75165;-78
2021/11/18 13:36:28;;;;;;;28.30;11.50;;;;;;;11.10;67.72;101724.77;102732;1320;71508;-78
2021/11/18 13:39:29;;;;;;;22.20;6.70;;;;;;;11.10;67.45;101720.55;103855;1316;74042;-77
2021/11/18 13:41:54;;;;;;;34.50;14.40;;;;;;;11.08;68.11;101703.78;102666;1317;62095;-78
2021/11/18 13:44:35;;;;;;;55.80;22.40;;;;;;;10.98;68.49;101703.34;102757;1317;61156;-78
2021/11/18 13:47:07;;;;;;;17.40;6.40;;;;;;;10.94;68.92;101701.95;102862;1315;74779;-81
2021/11/18 13:49:44;;;;;;;28.80;11.80;;;;;;;10.97;68.72;101697.35;103337;1318;71199;-78
2021/11/18 13:52:59;;;;;;;10.90;3.50;;;;;;;10.99;68.73;101701.45;103200;1318;74301;-80
2021/11/18 13:55:43;;;;;;;20.30;7.90;;;;;;;11.06;68.81;101703.46;103342;1316;61323;-80
2021/11/18 13:58:57;;;;;;;12.00;3.90;;;;;;;11.06;68.89;101697.58;103309;1317;61326;-78
2021/11/18 14:02:05;;;;;;;19.40;5.30;;;;;;;11.00;69.11;101693.56;102572;1317;75066;-78
2021/11/18 14:05:16;;;;;;;18.50;4.10;;;;;;;10.97;69.35;101687.28;102873;1322;71412;-78
2021/11/18 14:08:55;;;;;;;35.70;15.30;;;;;;;10.88;69.63;101688.60;102606;1320;73355;-78
2021/11/18 14:11:34;;;;;;;22.10;7.00;;;;;;;10.73;69.94;101703.02;102682;1318;61491;-78
2021/11/18 14:14:23;;;;;;;14.00;4.90;;;;;;;10.61;70.47;101704.31;102792;1319;61311;-77
2021/11/18 14:17:39;;;;;;;17.10;8.70;;;;;;;10.49;71.48;101698.58;102774;1316;76210;-77
2021/11/18 14:20:48;;;;;;;31.50;11.80;;;;;;;10.33;71.74;101694.73;102490;1318;72587;-80
2021/11/18 14:23:20;;;;;;;18.50;5.90;;;;;;;10.20;72.35;101695.74;103264;1317;72892;-77
2021/11/18 14:26:11;;;;;;;22.90;11.70;;;;;;;10.11;72.68;101691.27;102196;1318;613111;-78
2021/11/18 14:28:54;;;;;;;82.30;33.40;;;;;;;10.04;72.91;101680.47;102669;1317;60603;-77
2021/11/18 14:32:00;;;;;;;21.80;8.30;;;;;;;9.98;73.14;101677.34;102741;1316;76042;-81
2021/11/18 14:35:07;;;;;;;10.40;4.10;;;;;;;9.92;73.60;101676.14;102871;1316;71797;-77
2021/11/18 14:37:57;;;;;;;17.60;5.30;;;;;;;9.86;73.61;101681.61;102269;1322;74328;-80
2021/11/18 14:41:35;;;;;;;13.40;3.00;;;;;;;9.84;73.58;101687.30;102916;1316;64973;-80
2021/11/18 14:44:08;;;;;;;14.40;4.50;;;;;;;9.79;73.72;101689.85;102757;1316;61324;-79
2021/11/18 14:46:59;;;;;;;12.10;4.70;;;;;;;9.77;73.99;101696.20;103262;1318;74884;-80
2021/11/18 14:49:43;;;;;;;24.40;8.20;;;;;;;9.74;73.47;101699.84;103081;1315;71216;-78
2021/11/18 14:53:14;;;;;;;17.00;4.90;;;;;;;9.72;73.38;101700.23;102800;1318;72911;-77
2021/11/18 14:56:15;;;;;;;29.20;12.30;;;;;;;9.70;73.04;101704.65;102259;1322;63433;-79
2021/11/18 14:59:25;;;;;;;14.00;4.40;;;;;;;9.73;73.31;101699.67;102944;1321;61256;-79
2021/11/18 15:02:00;;;;;;;30.10;8.70;;;;;;;9.71;73.47;101695.04;102874;1321;74721;-80
2021/11/18 15:04:41;;;;;;;20.30;8.00;;;;;;;9.71;73.61;101695.96;102779;1318;72234;-80
2021/11/18 15:07:15;;;;;;;23.50;8.70;;;;;;;9.68;73.38;101702.53;103189;1318;73941;-77
2021/11/18 15:10:03;;;;;;;16.60;5.20;;;;;;;9.68;73.68;101695.31;102579;1318;61198;-77
2021/11/18 15:12:54;;;;;;;20.70;5.20;;;;;;;9.69;73.55;101690.84;102640;1319;61418;-81
2021/11/18 15:15:25;;;;;;;7.90;2.60;;;;;;;9.68;73.75;101695.32;103280;1317;74843;-77
2021/11/18 15:18:13;;;;;;;;;;;;;;;;;;;;;
2021/11/18 15:21:24;;;;;;;;;;;;;;;;;;;;;
2021/11/18 15:23:56;;;;;;;25.80;8.80;;;;;;;9.62;74.06;101705.89;103111;1318;61817;-78
2021/11/18 15:26:37;;;;;;;21.80;8.30;;;;;;;9.61;74.22;101696.88;102685;1320;61596;-81
2021/11/18 15:29:50;;;;;;;;;;;;;;;;;;;;;
2021/11/18 15:32:46;;;;;;;12.80;3.40;;;;;;;9.60;74.15;101700.16;103051;1318;71371;-75
2021/11/18 15:35:47;;;;;;;;;;;;;;;;;;;;;
2021/11/18 15:39:08;;;;;;;;;;;;;;;;;;;;;
2021/11/18 15:41:59;;;;;;;26.50;12.00;;;;;;;9.60;74.53;101700.56;102713;1317;61412;-79
2021/11/18 15:44:57;;;;;;;29.20;10.30;;;;;;;9.62;74.67;101700.35;102661;1318;75626;-82
2021/11/18 15:47:25;;;;;;;25.80;11.00;;;;;;;9.61;74.57;101699.71;103090;1316;71638;-78
2021/11/18 15:50:14;;;;;;;18.80;6.30;;;;;;;9.60;74.55;101702.42;102830;1319;72895;-80
2021/11/18 15:53:12;;;;;;;14.50;4.10;;;;;;;9.58;74.45;101701.75;103057;1318;60698;-76